Time;durP1;ratioP1;P1;durP2;ratioP2;P2;SDS_P1;SDS_P2;PMS_P1;PMS_P2;Temp;Humidity;BMP_temperature;BMP_pressure;BME280_temperature;BME280_humidity;BME280_pressure;Samples;Min_cycle;Max_cycle;Signal;HPM_P1;HPM_P2
2020/12/06 00:01:28;;;;;;;1.65;1.50;;;3.70;83.30;;;;;;5032736;28;20030;-79
2020/12/06 00:03:54;;;;;;;1.75;1.65;;;3.70;83.20;;;;;;5044292;28;20047;-79
2020/12/06 00:06:20;;;;;;;1.50;1.30;;;3.80;83.10;;;;;;5037596;28;20041;-78
2020/12/06 00:08:52;;;;;;;1.23;1.13;;;3.70;83.00;;;;;;5015316;28;20033;-79
2020/12/06 00:11:18;;;;;;;2.08;1.42;;;3.80;83.00;;;;;;5018671;28;20033;-80
2020/12/06 00:13:45;;;;;;;1.52;1.30;;;3.80;83.20;;;;;;5035588;28;20075;-79
2020/12/06 00:16:18;;;;;;;1.50;1.40;;;3.70;83.20;;;;;;5018981;28;20061;-79
2020/12/06 00:18:46;;;;;;;2.17;1.50;;;3.70;83.30;;;;;;5020246;28;20374;-79
2020/12/06 00:21:16;;;;;;;1.55;1.30;;;3.70;83.40;;;;;;5041407;28;20479;-78
2020/12/06 00:23:42;;;;;;;1.40;0.95;;;3.70;83.50;;;;;;5037028;28;20083;-78
2020/12/06 00:26:08;;;;;;;1.48;1.33;;;3.60;83.50;;;;;;5039808;28;20038;-78
2020/12/06 00:28:34;;;;;;;1.42;1.33;;;3.60;83.50;;;;;;5048993;28;20079;-78
2020/12/06 00:31:00;;;;;;;1.45;1.35;;;3.60;83.50;;;;;;5025313;28;20040;-78
2020/12/06 00:33:26;;;;;;;2.25;1.48;;;3.60;83.50;;;;;;5036519;28;20041;-78
2020/12/06 00:35:52;;;;;;;1.55;1.42;;;3.60;83.50;;;;;;5035719;28;20079;-79
2020/12/06 00:38:17;;;;;;;1.58;1.38;;;3.60;83.70;;;;;;5036602;28;20041;-78
2020/12/06 00:40:43;;;;;;;1.88;1.27;;;3.60;83.70;;;;;;5036346;28;20033;-80
2020/12/06 00:43:09;;;;;;;1.85;1.40;;;3.60;83.70;;;;;;5035823;28;20065;-78
2020/12/06 00:45:34;;;;;;;1.65;1.40;;;3.60;83.70;;;;;;5034429;28;20056;-78
2020/12/06 00:48:00;;;;;;;1.23;1.10;;;3.60;83.70;;;;;;5037044;28;20033;-79
2020/12/06 00:50:26;;;;;;;2.22;1.50;;;3.60;83.70;;;;;;5035560;28;20025;-78
2020/12/06 00:52:51;;;;;;;1.13;1.02;;;3.60;83.70;;;;;;5021945;28;20044;-79
2020/12/06 00:55:17;;;;;;;1.30;1.20;;;3.60;83.70;;;;;;5035281;28;20029;-78
2020/12/06 00:57:43;;;;;;;2.17;1.52;;;3.60;83.60;;;;;;5035455;28;20096;-78
2020/12/06 01:00:10;;;;;;;1.73;1.35;;;3.60;83.60;;;;;;5015999;28;20100;-78
2020/12/06 01:02:36;;;;;;;2.30;1.73;;;3.60;83.50;;;;;;5017423;28;20041;-78
2020/12/06 01:05:02;;;;;;;2.13;1.60;;;3.60;83.50;;;;;;5035181;28;20033;-78
2020/12/06 01:07:27;;;;;;;2.33;1.60;;;3.60;83.50;;;;;;5022014;28;20029;-78
2020/12/06 01:09:53;;;;;;;1.63;1.40;;;3.60;83.50;;;;;;5024757;28;20040;-77
2020/12/06 01:12:19;;;;;;;1.35;1.25;;;3.60;83.60;;;;;;5043790;28;20119;-78
2020/12/06 01:14:45;;;;;;;2.33;1.67;;;3.60;83.60;;;;;;5050013;28;20049;-78
2020/12/06 01:17:10;;;;;;;1.20;1.10;;;3.70;83.60;;;;;;5049546;28;20540;-78
2020/12/06 01:19:36;;;;;;;2.10;1.90;;;3.70;83.50;;;;;;5027213;28;20038;-78
2020/12/06 01:22:02;;;;;;;1.40;1.30;;;3.70;83.40;;;;;;5017137;28;20482;-79
2020/12/06 01:24:27;;;;;;;0.85;0.85;;;3.70;83.30;;;;;;5021043;28;20030;-79
2020/12/06 01:26:53;;;;;;;1.52;1.33;;;3.70;83.30;;;;;;5017911;28;20124;-78
2020/12/06 01:29:18;;;;;;;1.70;1.60;;;3.70;83.30;;;;;;5015717;28;20360;-78
2020/12/06 01:31:48;;;;;;;1.63;1.30;;;3.70;83.30;;;;;;5016960;28;20090;-78
2020/12/06 01:34:15;;;;;;;1.13;1.10;;;3.70;83.30;;;;;;5035511;28;20029;-79
2020/12/06 01:36:41;;;;;;;1.40;1.30;;;3.70;83.40;;;;;;5020639;28;20160;-79
2020/12/06 01:39:07;;;;;;;1.60;1.50;;;3.70;83.40;;;;;;5034152;28;20124;-78
2020/12/06 01:41:33;;;;;;;1.50;1.40;;;3.70;83.50;;;;;;5020174;28;20132;-79
2020/12/06 01:44:00;;;;;;;1.80;1.55;;;3.70;83.50;;;;;;5033515;28;20069;-79
2020/12/06 01:46:26;;;;;;;1.90;1.40;;;3.70;83.60;;;;;;5034674;28;20045;-79
2020/12/06 01:48:53;;;;;;;2.25;1.98;;;3.60;83.50;;;;;;5035027;28;20045;-78
2020/12/06 01:51:20;;;;;;;1.77;1.55;;;3.70;83.60;;;;;;5033870;28;20037;-77
2020/12/06 01:53:48;;;;;;;1.88;1.30;;;3.70;83.60;;;;;;5034025;28;20034;-78
2020/12/06 01:56:14;;;;;;;2.88;1.90;;;3.70;83.60;;;;;;5017018;28;20463;-78
2020/12/06 01:58:40;;;;;;;1.90;1.80;;;3.60;83.60;;;;;;5014887;28;20132;-78
2020/12/06 02:01:08;;;;;;;1.50;1.40;;;3.70;83.60;;;;;;5015677;28;20079;-78
2020/12/06 02:03:34;;;;;;;2.63;1.88;;;3.60;83.60;;;;;;5034769;28;20544;-78
2020/12/06 02:05:59;;;;;;;2.42;1.77;;;3.70;83.50;;;;;;5034617;28;20033;-79
2020/12/06 02:08:25;;;;;;;1.98;1.63;;;3.70;83.50;;;;;;5018154;28;20083;-78
2020/12/06 02:10:51;;;;;;;1.85;1.70;;;3.70;83.40;;;;;;5034826;28;20041;-79
2020/12/06 02:13:19;;;;;;;2.22;1.77;;;3.70;83.40;;;;;;5034668;28;20505;-79
2020/12/06 02:15:45;;;;;;;1.65;1.55;;;3.70;83.30;;;;;;5033152;28;20052;-79
2020/12/06 02:18:10;;;;;;;1.88;1.73;;;3.70;83.30;;;;;;5017085;28;20049;-79
2020/12/06 02:20:36;;;;;;;2.20;1.70;;;3.70;83.20;;;;;;5034031;28;20510;-79
2020/12/06 02:23:03;;;;;;;1.98;1.75;;;3.70;83.20;;;;;;5020487;28;20396;-79
2020/12/06 02:25:29;;;;;;;1.52;1.40;;;3.80;83.80;;;;;;5034121;28;20056;-79
2020/12/06 02:27:54;;;;;;;1.35;1.25;;;3.80;83.10;;;;;;5030885;28;20455;-79
2020/12/06 02:30:21;;;;;;;2.72;1.65;;;3.80;83.10;;;;;;5036054;28;20386;-79
2020/12/06 02:32:47;;;;;;;1.75;1.60;;;3.80;83.00;;;;;;5021642;28;20056;-79
2020/12/06 02:35:12;;;;;;;1.15;1.02;;;3.90;83.00;;;;;;5034398;28;20061;-79
2020/12/06 02:37:38;;;;;;;2.15;1.95;;;3.90;83.00;;;;;;5034014;28;20115;-79
2020/12/06 02:40:04;;;;;;;2.55;1.85;;;3.90;82.90;;;;;;5015863;28;20030;-79
2020/12/06 02:42:30;;;;;;;1.67;1.58;;;3.90;82.90;;;;;;5033863;28;20127;-79
2020/12/06 02:44:55;;;;;;;1.17;1.02;;;3.90;82.90;;;;;;5032229;28;20037;-79
2020/12/06 02:47:21;;;;;;;1.60;1.50;;;3.90;82.90;;;;;;5016964;28;20037;-79
2020/12/06 02:49:46;;;;;;;1.73;1.63;;;3.90;82.90;;;;;;5016917;28;20443;-78
2020/12/06 02:52:12;;;;;;;1.80;1.50;;;3.90;82.90;;;;;;5015525;28;20045;-79
2020/12/06 02:54:38;;;;;;;1.23;1.20;;;3.90;82.90;;;;;;5024515;28;20072;-79
2020/12/06 02:57:03;;;;;;;1.83;1.55;;;3.90;82.90;;;;;;5028202;28;20033;-79
2020/12/06 02:59:29;;;;;;;1.38;1.27;;;3.90;82.90;;;;;;5031611;28;20033;-79
2020/12/06 03:01:54;;;;;;;3.10;1.52;;;4.00;83.50;;;;;;5033362;28;20034;-79
2020/12/06 03:04:20;;;;;;;1.88;1.55;;;4.00;82.90;;;;;;5033097;28;20132;-79
2020/12/06 03:06:46;;;;;;;3.03;1.95;;;4.00;82.80;;;;;;5033474;28;20036;-79
2020/12/06 03:09:11;;;;;;;1.50;1.40;;;4.00;82.80;;;;;;5032970;28;20450;-79
2020/12/06 03:11:37;;;;;;;1.77;1.60;;;4.00;82.80;;;;;;5033274;28;20030;-79
2020/12/06 03:14:02;;;;;;;1.73;1.30;;;4.00;82.80;;;;;;5034002;28;20047;-79
2020/12/06 03:16:30;;;;;;;1.52;1.33;;;4.00;82.80;;;;;;5036827;28;20391;-79
2020/12/06 03:18:56;;;;;;;1.48;1.38;;;4.00;82.80;;;;;;5033557;28;20456;-79
2020/12/06 03:21:21;;;;;;;1.20;1.10;;;4.00;82.80;;;;;;5030876;28;20033;-79
2020/12/06 03:23:47;;;;;;;1.20;1.10;;;4.00;82.80;;;;;;5032468;28;20036;-79
2020/12/06 03:26:12;;;;;;;1.95;1.50;;;4.00;82.80;;;;;;5033171;28;20044;-79
2020/12/06 03:28:38;;;;;;;1.52;1.42;;;4.00;82.80;;;;;;5032799;28;20521;-79
2020/12/06 03:31:04;;;;;;;1.10;1.00;;;4.00;82.80;;;;;;5031874;28;20037;-79
2020/12/06 03:33:29;;;;;;;1.25;1.15;;;4.00;82.80;;;;;;5033718;28;20045;-79
2020/12/06 03:35:55;;;;;;;1.60;1.25;;;4.00;82.80;;;;;;5014730;28;20522;-79
2020/12/06 03:38:20;;;;;;;1.45;1.35;;;4.00;82.80;;;;;;5032807;28;20053;-79
2020/12/06 03:40:46;;;;;;;1.27;1.15;;;4.10;82.80;;;;;;5031993;28;20053;-79
2020/12/06 03:43:11;;;;;;;2.13;1.35;;;4.10;82.80;;;;;;5033068;28;20059;-79
2020/12/06 03:45:37;;;;;;;2.35;1.55;;;4.10;82.80;;;;;;5031071;28;20042;-79
2020/12/06 03:48:02;;;;;;;1.67;1.42;;;4.10;82.80;;;;;;5014098;28;20494;-79
2020/12/06 03:50:28;;;;;;;1.85;1.30;;;4.10;82.80;;;;;;5008160;28;20037;-79
2020/12/06 03:52:54;;;;;;;1.90;1.80;;;4.10;82.70;;;;;;5014919;28;20359;-78
2020/12/06 03:55:20;;;;;;;2.15;1.42;;;4.10;82.70;;;;;;5013779;28;20034;-78
2020/12/06 03:57:45;;;;;;;1.15;1.05;;;4.10;82.70;;;;;;5032698;28;20069;-78
2020/12/06 04:00:11;;;;;;;1.10;1.10;;;4.10;82.70;;;;;;5030680;28;20044;-77
2020/12/06 04:02:37;;;;;;;1.05;0.95;;;4.10;82.70;;;;;;5032459;28;20040;-78
2020/12/06 04:05:03;;;;;;;1.38;1.27;;;4.20;82.70;;;;;;5032234;28;20041;-78
2020/12/06 04:07:28;;;;;;;1.75;1.30;;;4.20;82.60;;;;;;5017269;28;20385;-78
2020/12/06 04:09:54;;;;;;;1.17;1.02;;;4.20;82.60;;;;;;5013956;28;20041;-78
2020/12/06 04:12:20;;;;;;;1.38;1.27;;;4.20;82.60;;;;;;5032191;28;20030;-78
2020/12/06 04:14:45;;;;;;;1.15;1.08;;;4.30;82.70;;;;;;5035470;28;20544;-78
2020/12/06 04:17:11;;;;;;;1.27;1.13;;;4.30;82.60;;;;;;5032403;28;20045;-80
2020/12/06 04:19:36;;;;;;;1.00;0.98;;;4.30;82.60;;;;;;5031929;28;20059;-77
2020/12/06 04:22:06;;;;;;;1.83;1.67;;;4.30;82.70;;;;;;5031445;28;20069;-77
2020/12/06 04:24:35;;;;;;;1.58;1.45;;;4.30;82.80;;;;;;5032384;28;20103;-78
2020/12/06 04:27:01;;;;;;;1.37;1.13;;;4.30;82.80;;;;;;5032654;28;20116;-76
2020/12/06 04:29:26;;;;;;;1.45;1.10;;;4.30;82.80;;;;;;5030551;28;20117;-77
2020/12/06 04:31:52;;;;;;;1.20;1.20;;;4.30;82.80;;;;;;4994618;28;20038;-78
2020/12/06 04:34:18;;;;;;;1.30;1.20;;;4.30;82.80;;;;;;5016156;28;20038;-77
2020/12/06 04:36:44;;;;;;;1.38;1.10;;;4.40;82.70;;;;;;5032064;28;20040;-77
2020/12/06 04:39:09;;;;;;;1.40;1.30;;;4.40;82.50;;;;;;5031741;28;20029;-78
2020/12/06 04:41:35;;;;;;;1.30;1.20;;;4.40;82.50;;;;;;5014496;28;20136;-77
2020/12/06 04:44:01;;;;;;;1.45;1.35;;;4.40;82.40;;;;;;5030607;28;20091;-77
2020/12/06 04:46:28;;;;;;;1.63;1.30;;;4.40;82.40;;;;;;5013805;28;20117;-78
2020/12/06 04:49:03;;;;;;;1.25;1.20;;;4.40;82.40;;;;;;5017038;28;20052;-78
2020/12/06 04:51:38;;;;;;;1.63;1.52;;;4.40;82.40;;;;;;5033319;28;20042;-78
2020/12/06 04:54:04;;;;;;;2.08;1.55;;;4.40;82.50;;;;;;5038343;28;20136;-78
2020/12/06 04:56:31;;;;;;;2.10;1.30;;;4.30;82.60;;;;;;5040217;28;20096;-79
2020/12/06 04:58:58;;;;;;;2.53;1.67;;;4.30;82.60;;;;;;5019049;28;20045;-79
2020/12/06 05:01:36;;;;;;;1.50;1.40;;;4.30;82.60;;;;;;5035925;28;20033;-79
2020/12/06 05:04:12;;;;;;;2.10;1.38;;;4.20;82.70;;;;;;5035332;28;20443;-79
2020/12/06 05:06:39;;;;;;;1.77;1.67;;;4.20;82.80;;;;;;5009073;28;20025;-79
2020/12/06 05:09:12;;;;;;;1.60;1.38;;;4.20;82.80;;;;;;5035019;28;20216;-79
2020/12/06 05:11:39;;;;;;;1.55;1.27;;;4.10;82.70;;;;;;5035958;28;20076;-79
2020/12/06 05:14:08;;;;;;;1.30;1.20;;;4.10;82.80;;;;;;5033498;28;20623;-78
2020/12/06 05:16:34;;;;;;;2.13;1.50;;;4.10;82.80;;;;;;5035485;28;20033;-79
2020/12/06 05:19:01;;;;;;;1.50;1.30;;;4.10;82.80;;;;;;5035299;28;20042;-79
2020/12/06 05:21:40;;;;;;;2.72;1.60;;;4.00;82.70;;;;;;5034478;28;20049;-78
2020/12/06 05:24:06;;;;;;;1.90;1.50;;;4.00;82.70;;;;;;5033643;28;20037;-79
2020/12/06 05:26:32;;;;;;;3.30;2.35;;;4.00;82.80;;;;;;5027022;28;20032;-79
2020/12/06 05:28:59;;;;;;;2.42;1.75;;;3.90;82.70;;;;;;5029102;28;20109;-78
2020/12/06 05:31:26;;;;;;;2.08;1.88;;;3.90;82.80;;;;;;5035495;28;20038;-79
2020/12/06 05:33:52;;;;;;;2.42;1.55;;;3.90;82.80;;;;;;5034748;28;20040;-79
2020/12/06 05:36:18;;;;;;;2.85;1.88;;;3.90;82.80;;;;;;5034829;28;20521;-78
2020/12/06 05:38:45;;;;;;;2.05;1.70;;;3.90;82.80;;;;;;5034225;28;20053;-77
2020/12/06 05:41:11;;;;;;;2.05;1.52;;;3.90;82.80;;;;;;5018773;28;20137;-77
2020/12/06 05:43:37;;;;;;;2.53;1.77;;;3.90;82.70;;;;;;5018970;28;20040;-78
2020/12/06 05:46:10;;;;;;;1.50;1.40;;;3.90;82.70;;;;;;5012438;28;20037;-78
2020/12/06 05:48:36;;;;;;;1.55;1.38;;;3.90;82.70;;;;;;5016166;28;20029;-78
2020/12/06 05:51:03;;;;;;;2.40;2.13;;;3.80;82.70;;;;;;5031915;28;20472;-78
2020/12/06 05:53:29;;;;;;;2.08;1.67;;;3.90;82.80;;;;;;5031618;28;20085;-79
2020/12/06 05:56:04;;;;;;;3.50;2.47;;;3.90;82.80;;;;;;5026465;28;20038;-79
2020/12/06 05:58:32;;;;;;;2.72;2.25;;;3.90;82.70;;;;;;5039527;28;20125;-79
2020/12/06 06:01:00;;;;;;;1.85;1.50;;;3.90;82.80;;;;;;5033245;28;20112;-79
2020/12/06 06:03:28;;;;;;;1.60;1.50;;;3.90;82.80;;;;;;5038563;28;20045;-78
2020/12/06 06:05:56;;;;;;;2.65;1.90;;;3.90;82.70;;;;;;5054217;28;20458;-79
2020/12/06 06:08:26;;;;;;;1.95;1.67;;;3.90;82.70;;;;;;5054345;28;20116;-78
2020/12/06 06:11:07;;;;;;;2.17;1.80;;;3.90;82.60;;;;;;5052887;28;20029;-79
2020/12/06 06:13:39;;;;;;;2.13;1.40;;;3.90;82.60;;;;;;4997180;28;20044;-79
2020/12/06 06:16:07;;;;;;;2.38;1.83;;;3.90;82.50;;;;;;5013051;28;20038;-79
2020/12/06 06:18:33;;;;;;;2.13;1.70;;;3.90;82.50;;;;;;5015077;28;20255;-78
2020/12/06 06:20:59;;;;;;;2.75;1.95;;;4.00;82.60;;;;;;5033049;28;20033;-79
2020/12/06 06:23:25;;;;;;;2.85;2.10;;;3.90;82.50;;;;;;5038272;28;20048;-78
2020/12/06 06:25:50;;;;;;;2.90;1.95;;;4.00;82.50;;;;;;5033239;28;20040;-78
2020/12/06 06:28:16;;;;;;;3.00;2.08;;;4.00;82.60;;;;;;5032969;28;20030;-78
2020/12/06 06:30:42;;;;;;;2.63;1.92;;;4.00;82.50;;;;;;5045826;28;20044;-78
2020/12/06 06:33:14;;;;;;;2.28;2.03;;;4.00;82.50;;;;;;5034393;28;20037;-79
2020/12/06 06:35:43;;;;;;;2.45;1.90;;;4.10;82.50;;;;;;5034322;28;20030;-78
2020/12/06 06:38:09;;;;;;;2.92;2.42;;;4.10;82.50;;;;;;5032890;28;20416;-77
2020/12/06 06:40:35;;;;;;;2.60;1.88;;;4.10;82.40;;;;;;5032846;28;20124;-78
2020/12/06 06:43:05;;;;;;;2.70;1.80;;;4.10;82.50;;;;;;5015857;28;20038;-80
2020/12/06 06:45:43;;;;;;;2.45;2.08;;;4.20;82.50;;;;;;5032657;28;20554;-79
2020/12/06 06:48:15;;;;;;;2.65;2.00;;;4.20;82.50;;;;;;5028789;28;20076;-78
2020/12/06 06:50:41;;;;;;;3.35;2.10;;;4.20;82.50;;;;;;5032658;28;20037;-78
2020/12/06 06:53:09;;;;;;;2.00;1.80;;;4.20;82.50;;;;;;5034868;28;20045;-77
2020/12/06 06:55:51;;;;;;;3.28;1.90;;;4.20;82.40;;;;;;5033730;28;20030;-77
2020/12/06 06:58:24;;;;;;;3.08;2.22;;;4.20;82.40;;;;;;5011886;28;20045;-77
2020/12/06 07:00:50;;;;;;;3.55;2.80;;;4.20;82.40;;;;;;5014907;28;20037;-77
2020/12/06 07:03:19;;;;;;;3.35;2.35;;;4.20;82.60;;;;;;5036010;28;20489;-78
2020/12/06 07:05:45;;;;;;;2.92;1.90;;;4.20;82.70;;;;;;5013733;28;20464;-77
2020/12/06 07:08:12;;;;;;;2.03;1.85;;;4.10;82.60;;;;;;5019273;28;20037;-78
2020/12/06 07:10:40;;;;;;;3.33;2.25;;;4.10;82.60;;;;;;5033121;28;20340;-78
2020/12/06 07:13:06;;;;;;;3.38;2.30;;;4.10;82.70;;;;;;5034483;28;20048;-78
2020/12/06 07:15:32;;;;;;;3.08;2.65;;;4.10;82.80;;;;;;5016492;28;20483;-78
2020/12/06 07:17:58;;;;;;;2.53;2.33;;;4.00;82.80;;;;;;5027517;28;20053;-78
2020/12/06 07:20:25;;;;;;;3.78;2.80;;;4.00;82.90;;;;;;5030485;28;20167;-77
2020/12/06 07:22:54;;;;;;;4.13;2.42;;;4.00;83.00;;;;;;5031662;28;20034;-77
2020/12/06 07:25:21;;;;;;;3.47;2.70;;;3.90;82.90;;;;;;5030575;28;20108;-77
2020/12/06 07:27:47;;;;;;;3.10;2.13;;;3.90;82.90;;;;;;5031274;28;20560;-77
2020/12/06 07:30:15;;;;;;;3.67;2.45;;;3.80;83.00;;;;;;5029464;28;20196;-77
2020/12/06 07:32:41;;;;;;;2.25;2.00;;;3.90;83.10;;;;;;5013595;28;20034;-77
2020/12/06 07:35:09;;;;;;;2.38;2.17;;;3.90;83.10;;;;;;5012998;28;20041;-77
2020/12/06 07:37:36;;;;;;;2.95;1.95;;;3.80;83.10;;;;;;5031037;28;20140;-77
2020/12/06 07:40:11;;;;;;;2.67;2.13;;;3.80;83.10;;;;;;5030421;28;20125;-77
2020/12/06 07:42:37;;;;;;;3.00;1.90;;;3.90;83.10;;;;;;5031516;28;20088;-76
2020/12/06 07:45:05;;;;;;;5.20;3.00;;;3.80;83.00;;;;;;5029770;28;20482;-76
2020/12/06 07:47:31;;;;;;;3.42;2.50;;;3.90;83.00;;;;;;5028292;28;20060;-77
2020/12/06 07:49:59;;;;;;;2.72;1.95;;;3.80;83.00;;;;;;5026746;28;20045;-80
2020/12/06 07:52:30;;;;;;;4.07;2.95;;;3.80;83.10;;;;;;5032129;28;20036;-79
2020/12/06 07:55:01;;;;;;;2.50;2.30;;;3.90;83.10;;;;;;5009872;28;20046;-79
2020/12/06 07:58:08;;;;;;;3.33;2.17;;;3.90;83.00;;;;;;5032078;28;20050;-79
2020/12/06 08:00:39;;;;;;;2.65;2.13;;;3.90;82.90;;;;;;5025286;28;20399;-80
2020/12/06 08:03:06;;;;;;;2.67;2.00;;;3.90;82.90;;;;;;5034828;28;20025;-79
2020/12/06 08:05:39;;;;;;;2.38;1.88;;;3.90;82.80;;;;;;5032077;28;20033;-82
2020/12/06 08:08:20;;;;;;;2.63;2.10;;;4.00;82.80;;;;;;5033081;28;20033;-82
2020/12/06 08:10:51;;;;;;;2.80;1.92;;;4.00;82.70;;;;;;5014475;28;20025;-81
2020/12/06 08:13:17;;;;;;;3.22;2.30;;;4.10;82.60;;;;;;5014751;28;20041;-79
2020/12/06 08:15:43;;;;;;;3.63;2.10;;;4.10;82.60;;;;;;5030782;28;20041;-79
2020/12/06 08:18:18;;;;;;;3.50;2.03;;;4.10;82.50;;;;;;5032400;28;20056;-79
2020/12/06 08:20:54;;;;;;;3.03;2.38;;;4.20;83.20;;;;;;5032599;28;20079;-80
2020/12/06 08:23:36;;;;;;;3.38;1.95;;;4.20;82.50;;;;;;5032168;28;20494;-81
2020/12/06 08:26:03;;;;;;;3.50;2.30;;;4.30;82.40;;;;;;5033057;28;20048;-81
2020/12/06 08:28:29;;;;;;;3.05;2.00;;;4.30;82.40;;;;;;5036661;28;20132;-83
2020/12/06 08:30:56;;;;;;;2.35;1.88;;;4.30;82.40;;;;;;5019092;28;20029;-80
2020/12/06 08:33:26;;;;;;;2.63;2.00;;;4.40;82.40;;;;;;5037139;28;20026;-80
2020/12/06 08:35:54;;;;;;;2.25;1.90;;;4.40;82.30;;;;;;5036258;28;20064;-80
2020/12/06 08:38:21;;;;;;;3.17;2.00;;;4.40;82.40;;;;;;5018282;28;20521;-82
2020/12/06 08:41:10;;;;;;;2.33;1.75;;;4.40;82.30;;;;;;5037984;28;20084;-80
2020/12/06 08:43:51;;;;;;;2.78;1.90;;;4.40;82.30;;;;;;5017112;28;20034;-79
2020/12/06 08:46:22;;;;;;;2.25;1.83;;;4.40;82.40;;;;;;5037031;28;20467;-78
2020/12/06 08:48:50;;;;;;;2.22;2.00;;;4.30;82.40;;;;;;5038583;28;20025;-80
2020/12/06 08:51:33;;;;;;;2.80;1.85;;;4.30;82.50;;;;;;5018491;28;20038;-81
2020/12/06 08:54:01;;;;;;;4.05;2.72;;;4.40;82.50;;;;;;5017822;28;20034;-82
2020/12/06 08:56:37;;;;;;;2.97;2.20;;;4.30;82.50;;;;;;5037238;28;20056;-81
2020/12/06 08:59:14;;;;;;;4.13;2.80;;;4.30;82.50;;;;;;5035265;28;20156;-81
2020/12/06 09:01:53;;;;;;;4.20;2.92;;;4.30;82.60;;;;;;5021648;28;20060;-81
2020/12/06 09:04:20;;;;;;;4.13;2.78;;;4.30;82.70;;;;;;5033661;28;20049;-81
2020/12/06 09:06:46;;;;;;;3.03;2.00;;;4.20;82.80;;;;;;5019514;28;20067;-81
2020/12/06 09:09:13;;;;;;;2.67;2.22;;;4.20;82.80;;;;;;5044403;28;20113;-84
2020/12/06 09:11:39;;;;;;;2.78;2.00;;;4.30;82.80;;;;;;5037083;28;20037;-83
2020/12/06 09:14:05;;;;;;;2.70;1.85;;;4.30;82.80;;;;;;5037002;28;20509;-82
2020/12/06 09:16:31;;;;;;;2.22;1.83;;;4.40;82.80;;;;;;5037833;28;20029;-82
2020/12/06 09:18:57;;;;;;;2.28;2.08;;;4.40;82.60;;;;;;5036632;28;20052;-82
2020/12/06 09:21:22;;;;;;;4.03;2.60;;;4.50;82.50;;;;;;5037530;28;20029;-82
2020/12/06 09:23:49;;;;;;;2.53;2.10;;;4.50;82.40;;;;;;5035181;28;20042;-82
2020/12/06 09:26:14;;;;;;;2.47;1.80;;;4.60;82.30;;;;;;5031745;28;20033;-82
2020/12/06 09:28:40;;;;;;;2.75;2.53;;;4.60;82.30;;;;;;5038127;28;20375;-81
2020/12/06 09:31:06;;;;;;;4.68;2.70;;;4.70;82.20;;;;;;5036209;28;20415;-81
2020/12/06 09:33:32;;;;;;;2.60;2.00;;;4.70;82.10;;;;;;5022542;28;20037;-81
2020/12/06 09:35:58;;;;;;;4.43;2.70;;;4.80;82.10;;;;;;5019972;28;20497;-82
2020/12/06 09:38:23;;;;;;;2.55;1.80;;;4.90;82.00;;;;;;5029673;28;20052;-82
2020/12/06 09:40:49;;;;;;;3.97;2.95;;;5.00;81.80;;;;;;5004394;28;20443;-82
2020/12/06 09:43:15;;;;;;;4.45;2.80;;;5.10;81.80;;;;;;5020570;28;20144;-82
2020/12/06 09:45:42;;;;;;;3.42;2.70;;;5.20;81.50;;;;;;5034537;28;20056;-81
2020/12/06 09:48:08;;;;;;;4.05;2.92;;;5.20;81.40;;;;;;5017164;28;20033;-82
2020/12/06 09:50:34;;;;;;;3.40;2.35;;;5.20;81.40;;;;;;5035928;28;20029;-82
2020/12/06 09:53:00;;;;;;;3.28;2.40;;;5.20;81.40;;;;;;5034246;28;20033;-82
2020/12/06 09:55:25;;;;;;;4.13;2.53;;;5.30;81.40;;;;;;5036955;28;20071;-82
2020/12/06 09:57:53;;;;;;;3.83;2.83;;;5.30;81.50;;;;;;5035857;28;20037;-81
2020/12/06 10:00:19;;;;;;;3.88;2.75;;;5.30;81.50;;;;;;5027294;28;20037;-82
2020/12/06 10:02:46;;;;;;;4.40;2.75;;;5.40;81.50;;;;;;5035531;28;20053;-81
2020/12/06 10:05:12;;;;;;;4.45;2.85;;;5.40;81.60;;;;;;5016682;28;20041;-81
2020/12/06 10:07:38;;;;;;;4.78;2.95;;;5.40;81.60;;;;;;5034504;28;20048;-81
2020/12/06 10:10:05;;;;;;;4.55;2.45;;;5.50;81.60;;;;;;5016627;28;20053;-82
2020/12/06 10:12:31;;;;;;;5.03;3.33;;;5.50;81.50;;;;;;5017417;28;20033;-82
2020/12/06 10:14:57;;;;;;;3.10;2.35;;;5.50;81.50;;;;;;5039729;28;20039;-83
2020/12/06 10:17:22;;;;;;;4.38;2.53;;;5.50;81.50;;;;;;5045844;28;20057;-83
2020/12/06 10:19:48;;;;;;;3.50;2.75;;;5.50;82.20;;;;;;5036789;28;20036;-83
2020/12/06 10:22:15;;;;;;;3.67;2.72;;;5.50;81.50;;;;;;5018957;28;20032;-81
2020/12/06 10:28:03;;;;;;;3.85;2.92;;;5.60;81.60;;;;;;5044234;28;20088;-84
2020/12/06 10:30:28;;;;;;;4.45;3.15;;;5.50;81.60;;;;;;5022476;28;20030;-83
2020/12/06 10:32:54;;;;;;;3.72;2.75;;;5.50;81.70;;;;;;5037290;28;20057;-84
2020/12/06 10:35:20;;;;;;;3.75;2.58;;;5.50;81.70;;;;;;5029441;28;20340;-84
2020/12/06 10:37:45;;;;;;;3.72;2.42;;;5.50;81.70;;;;;;5018826;28;20041;-82
2020/12/06 10:40:11;;;;;;;4.63;2.80;;;5.60;81.80;;;;;;5026156;28;20021;-84
2020/12/06 10:42:39;;;;;;;4.30;2.53;;;5.60;81.80;;;;;;5039510;28;20030;-85
2020/12/06 10:45:06;;;;;;;3.15;2.25;;;5.70;81.80;;;;;;5042899;28;20029;-83
2020/12/06 10:47:32;;;;;;;4.50;2.85;;;5.60;81.70;;;;;;5020264;28;20038;-84
2020/12/06 10:50:02;;;;;;;3.78;2.72;;;5.70;81.80;;;;;;5017115;28;20029;-83
2020/12/06 10:53:00;;;;;;;3.72;2.65;;;5.70;81.80;;;;;;5004135;28;20414;-84
2020/12/06 10:56:35;;;;;;;4.75;2.97;;;5.70;81.80;;;;;;4899577;29;20419;-86
2020/12/06 11:00:02;;;;;;;3.38;2.50;;;5.80;81.70;;;;;;4902359;29;20131;-82
2020/12/06 11:03:30;;;;;;;3.33;2.38;;;5.90;81.60;;;;;;4877811;29;20032;-85
2020/12/06 11:10:51;;;;;;;3.75;2.83;;;6.10;81.40;;;;;;4831928;29;20198;-83
2020/12/06 11:14:10;;;;;;;2.42;2.08;;;6.20;81.20;;;;;;4734853;30;20048;-83
2020/12/06 11:17:40;;;;;;;3.38;2.28;;;6.30;81.10;;;;;;4732490;30;20055;-87
2020/12/06 11:20:48;;;;;;;;;;;6.40;81.00;;;;;;4744552;30;20048;-89
2020/12/06 11:45:00;;;;;;;2.45;1.77;;;6.80;80.70;;;;;;5011484;28;20084;-82
2020/12/06 11:48:26;;;;;;;2.20;1.98;;;6.80;80.80;;;;;;4939493;29;20043;-82
2020/12/06 11:51:55;;;;;;;3.20;2.20;;;6.80;80.80;;;;;;4913004;29;20028;-82
2020/12/06 11:55:29;;;;;;;5.28;3.08;;;6.90;80.90;;;;;;4877119;29;20068;-84
2020/12/06 11:59:15;;;;;;;3.00;2.53;;;6.70;81.00;;;;;;4823517;29;20046;-83
2020/12/06 12:03:09;;;;;;;3.67;2.58;;;6.60;81.30;;;;;;4731185;30;20041;-83
2020/12/06 12:06:34;;;;;;;;;;;;;;;;;;;;;
2020/12/06 12:12:29;;;;;;;2.50;1.90;;;6.70;81.40;;;;;;5071225;27;1094306;-84
2020/12/06 12:14:56;;;;;;;3.80;2.53;;;6.70;81.30;;;;;;5111644;28;20036;-84
2020/12/06 12:17:21;;;;;;;3.80;1.88;;;6.80;81.20;;;;;;5094886;28;20031;-84
2020/12/06 12:19:47;;;;;;;3.20;2.33;;;6.80;81.20;;;;;;5109362;28;20044;-84
2020/12/06 12:22:14;;;;;;;3.08;2.00;;;6.80;81.20;;;;;;5087763;28;20062;-84
2020/12/06 12:24:39;;;;;;;3.33;1.90;;;6.80;81.20;;;;;;5112627;28;20031;-84
2020/12/06 12:27:05;;;;;;;3.13;2.35;;;6.80;81.30;;;;;;5083660;28;20139;-85
2020/12/06 12:29:34;;;;;;;2.72;1.80;;;6.80;81.40;;;;;;5089417;28;20051;-84
2020/12/06 12:31:59;;;;;;;2.10;1.90;;;6.80;81.30;;;;;;5113918;28;20036;-84
2020/12/06 12:34:25;;;;;;;2.65;1.80;;;6.80;81.30;;;;;;5103759;28;20475;-83
2020/12/06 12:36:50;;;;;;;1.92;1.73;;;6.80;81.30;;;;;;5106323;28;20032;-81
2020/12/06 12:39:16;;;;;;;3.22;1.85;;;6.90;81.30;;;;;;5120211;28;20099;-84
2020/12/06 12:41:42;;;;;;;2.75;2.40;;;6.90;81.20;;;;;;5117553;28;20048;-83
2020/12/06 12:44:08;;;;;;;3.05;2.25;;;6.90;81.20;;;;;;5090377;28;20033;-84
2020/12/06 12:46:35;;;;;;;2.28;1.92;;;7.00;81.30;;;;;;5099122;28;20023;-83
2020/12/06 12:49:01;;;;;;;2.42;1.80;;;7.00;81.20;;;;;;5102021;28;20016;-84
2020/12/06 12:51:27;;;;;;;2.97;2.17;;;7.00;81.20;;;;;;5106109;28;20064;-86
2020/12/06 12:53:53;;;;;;;1.85;1.75;;;7.00;81.20;;;;;;5081100;28;20035;-83
2020/12/06 12:56:20;;;;;;;3.22;2.42;;;7.00;81.10;;;;;;5111449;28;20024;-83
2020/12/06 12:59:12;;;;;;;2.60;2.35;;;7.00;81.20;;;;;;5087766;28;20111;-88
2020/12/06 13:02:20;;;;;;;4.50;3.00;;;7.00;81.20;;;;;;5050348;28;20033;-81
2020/12/06 13:05:25;;;;;;;3.70;2.70;;;6.90;81.40;;;;;;5040064;28;20025;-85
2020/12/06 13:08:12;;;;;;;3.97;2.90;;;6.80;81.40;;;;;;5045551;28;20374;-81
2020/12/06 13:10:39;;;;;;;3.50;2.58;;;6.80;81.60;;;;;;5010954;28;20057;-79
2020/12/06 13:13:06;;;;;;;3.00;2.30;;;6.80;81.70;;;;;;5045282;28;20041;-79
2020/12/06 13:15:32;;;;;;;4.07;2.78;;;6.80;81.60;;;;;;5032430;28;20044;-81
2020/12/06 13:17:59;;;;;;;5.00;3.25;;;6.80;81.70;;;;;;5048243;28;20021;-81
2020/12/06 13:20:25;;;;;;;4.30;2.95;;;6.80;81.70;;;;;;5048093;28;20494;-81
2020/12/06 13:22:51;;;;;;;2.97;2.67;;;6.80;81.70;;;;;;5039772;28;20033;-79
2020/12/06 13:25:18;;;;;;;4.13;2.53;;;6.80;81.70;;;;;;5034207;28;20135;-80
2020/12/06 13:27:43;;;;;;;3.40;2.10;;;6.80;81.80;;;;;;5029775;28;20026;-80
2020/12/06 13:30:09;;;;;;;3.45;2.53;;;6.80;81.70;;;;;;5032410;28;20475;-79
2020/12/06 13:32:35;;;;;;;5.05;3.17;;;6.80;81.60;;;;;;5018074;28;20052;-81
2020/12/06 13:35:00;;;;;;;4.43;3.47;;;6.80;81.60;;;;;;5023683;28;20018;-84
2020/12/06 13:37:26;;;;;;;2.55;1.85;;;6.80;81.70;;;;;;5009147;28;20034;-81
2020/12/06 13:39:55;;;;;;;2.53;2.00;;;6.80;81.80;;;;;;5042221;28;20495;-84
2020/12/06 13:42:27;;;;;;;3.55;2.63;;;6.80;81.80;;;;;;5043235;28;20029;-82
2020/12/06 13:45:02;;;;;;;2.15;1.80;;;6.80;81.80;;;;;;5051668;28;20032;-82
2020/12/06 13:47:50;;;;;;;2.60;1.92;;;6.80;81.80;;;;;;5029503;28;20030;-88